sensor_id;sensor_type;location;lat;lon;timestamp;P1;durP1;ratioP1;P2;durP2;ratioP2
4389;SDS011;2209;48.982;8.406;2022-08-19T00:01:18;19.00;;;14.13;;
4389;SDS011;2209;48.982;8.406;2022-08-19T00:03:41;13.00;;;11.70;;
4389;SDS011;2209;48.982;8.406;2022-08-19T00:06:04;14.60;;;13.17;;
4389;SDS011;2209;48.982;8.406;2022-08-19T00:08:28;14.03;;;12.40;;
4389;SDS011;2209;48.982;8.406;2022-08-19T00:10:50;14.47;;;12.53;;
4389;SDS011;2209;48.982;8.406;2022-08-19T00:13:12;19.60;;;12.63;;
4389;SDS011;2209;48.982;8.406;2022-08-19T00:15:36;15.00;;;13.50;;
4389;SDS011;2209;48.982;8.406;2022-08-19T00:17:58;13.40;;;12.10;;
4389;SDS011;2209;48.982;8.406;2022-08-19T00:20:20;14.97;;;13.43;;
4389;SDS011;2209;48.982;8.406;2022-08-19T00:22:43;15.73;;;13.47;;
4389;SDS011;2209;48.982;8.406;2022-08-19T00:25:08;14.30;;;12.30;;
4389;SDS011;2209;48.982;8.406;2022-08-19T00:27:30;13.87;;;12.43;;
4389;SDS011;2209;48.982;8.406;2022-08-19T00:29:52;13.77;;;12.40;;
4389;SDS011;2209;48.982;8.406;2022-08-19T00:32:14;14.20;;;13.00;;
4389;SDS011;2209;48.982;8.406;2022-08-19T00:34:37;13.63;;;12.43;;
4389;SDS011;2209;48.982;8.406;2022-08-19T00:36:59;16.60;;;12.40;;
4389;SDS011;2209;48.982;8.406;2022-08-19T00:39:21;14.67;;;13.27;;
4389;SDS011;2209;48.982;8.406;2022-08-19T00:41:46;14.80;;;13.30;;
4389;SDS011;2209;48.982;8.406;2022-08-19T00:44:10;15.47;;;12.40;;
4389;SDS011;2209;48.982;8.406;2022-08-19T00:46:36;18.60;;;12.67;;
4389;SDS011;2209;48.982;8.406;2022-08-19T00:49:00;14.40;;;13.00;;
4389;SDS011;2209;48.982;8.406;2022-08-19T00:51:28;14.07;;;12.77;;
4389;SDS011;2209;48.982;8.406;2022-08-19T00:53:53;15.60;;;13.30;;
4389;SDS011;2209;48.982;8.406;2022-08-19T00:56:16;16.77;;;13.57;;
4389;SDS011;2209;48.982;8.406;2022-08-19T00:58:40;13.10;;;11.80;;
4389;SDS011;2209;48.982;8.406;2022-08-19T01:01:03;14.67;;;13.37;;
4389;SDS011;2209;48.982;8.406;2022-08-19T01:03:25;14.50;;;13.00;;
4389;SDS011;2209;48.982;8.406;2022-08-19T01:05:48;14.80;;;13.40;;
4389;SDS011;2209;48.982;8.406;2022-08-19T01:08:13;15.83;;;14.23;;
4389;SDS011;2209;48.982;8.406;2022-08-19T01:10:39;15.93;;;14.27;;
4389;SDS011;2209;48.982;8.406;2022-08-19T01:13:04;14.87;;;13.37;;
4389;SDS011;2209;48.982;8.406;2022-08-19T01:15:28;14.50;;;13.00;;
4389;SDS011;2209;48.982;8.406;2022-08-19T01:17:53;13.97;;;12.53;;
4389;SDS011;2209;48.982;8.406;2022-08-19T01:20:17;14.50;;;13.07;;
4389;SDS011;2209;48.982;8.406;2022-08-19T01:22:44;15.70;;;14.17;;
4389;SDS011;2209;48.982;8.406;2022-08-19T01:25:08;15.73;;;14.17;;
4389;SDS011;2209;48.982;8.406;2022-08-19T01:27:36;15.13;;;13.63;;
4389;SDS011;2209;48.982;8.406;2022-08-19T01:29:59;17.77;;;13.90;;
4389;SDS011;2209;48.982;8.406;2022-08-19T01:32:21;14.10;;;12.70;;
4389;SDS011;2209;48.982;8.406;2022-08-19T01:34:43;16.63;;;14.13;;
4389;SDS011;2209;48.982;8.406;2022-08-19T01:37:08;15.63;;;14.13;;
4389;SDS011;2209;48.982;8.406;2022-08-19T01:39:33;14.83;;;13.43;;
4389;SDS011;2209;48.982;8.406;2022-08-19T01:41:55;16.10;;;14.40;;
4389;SDS011;2209;48.982;8.406;2022-08-19T01:44:18;15.07;;;13.60;;
4389;SDS011;2209;48.982;8.406;2022-08-19T01:46:41;15.40;;;13.30;;
4389;SDS011;2209;48.982;8.406;2022-08-19T01:49:04;17.37;;;14.70;;
4389;SDS011;2209;48.982;8.406;2022-08-19T01:51:28;16.00;;;14.40;;
4389;SDS011;2209;48.982;8.406;2022-08-19T01:53:50;17.33;;;15.63;;
4389;SDS011;2209;48.982;8.406;2022-08-19T01:56:15;16.17;;;14.60;;
4389;SDS011;2209;48.982;8.406;2022-08-19T01:58:39;15.57;;;13.73;;
4389;SDS011;2209;48.982;8.406;2022-08-19T02:01:06;14.60;;;13.10;;
4389;SDS011;2209;48.982;8.406;2022-08-19T02:03:29;19.60;;;14.30;;
4389;SDS011;2209;48.982;8.406;2022-08-19T02:05:55;18.23;;;15.33;;
4389;SDS011;2209;48.982;8.406;2022-08-19T02:08:19;15.40;;;13.90;;
4389;SDS011;2209;48.982;8.406;2022-08-19T02:10:42;17.63;;;14.07;;
4389;SDS011;2209;48.982;8.406;2022-08-19T02:13:06;16.17;;;14.53;;
4389;SDS011;2209;48.982;8.406;2022-08-19T02:15:28;16.70;;;15.20;;
4389;SDS011;2209;48.982;8.406;2022-08-19T02:17:50;19.07;;;17.07;;
4389;SDS011;2209;48.982;8.406;2022-08-19T02:20:13;18.37;;;16.47;;
4389;SDS011;2209;48.982;8.406;2022-08-19T02:22:35;17.90;;;16.00;;
4389;SDS011;2209;48.982;8.406;2022-08-19T02:24:58;19.50;;;16.50;;
4389;SDS011;2209;48.982;8.406;2022-08-19T02:27:20;18.70;;;15.80;;
4389;SDS011;2209;48.982;8.406;2022-08-19T02:29:44;19.07;;;16.83;;
4389;SDS011;2209;48.982;8.406;2022-08-19T02:32:07;25.20;;;15.90;;
4389;SDS011;2209;48.982;8.406;2022-08-19T02:34:29;17.93;;;16.13;;
4389;SDS011;2209;48.982;8.406;2022-08-19T02:36:51;16.87;;;15.27;;
4389;SDS011;2209;48.982;8.406;2022-08-19T02:39:13;17.00;;;15.30;;
4389;SDS011;2209;48.982;8.406;2022-08-19T02:41:34;16.80;;;15.10;;
4389;SDS011;2209;48.982;8.406;2022-08-19T02:43:57;17.03;;;15.30;;
4389;SDS011;2209;48.982;8.406;2022-08-19T02:46:23;18.83;;;16.90;;
4389;SDS011;2209;48.982;8.406;2022-08-19T02:48:47;18.00;;;16.13;;
4389;SDS011;2209;48.982;8.406;2022-08-19T02:51:15;17.60;;;15.93;;
4389;SDS011;2209;48.982;8.406;2022-08-19T02:53:37;17.73;;;16.00;;
4389;SDS011;2209;48.982;8.406;2022-08-19T02:56:00;18.33;;;15.37;;
4389;SDS011;2209;48.982;8.406;2022-08-19T02:58:22;17.47;;;15.80;;
4389;SDS011;2209;48.982;8.406;2022-08-19T03:00:44;16.97;;;15.17;;
4389;SDS011;2209;48.982;8.406;2022-08-19T03:03:11;18.13;;;16.33;;
4389;SDS011;2209;48.982;8.406;2022-08-19T03:05:33;18.23;;;16.20;;
4389;SDS011;2209;48.982;8.406;2022-08-19T03:07:55;17.37;;;15.77;;
4389;SDS011;2209;48.982;8.406;2022-08-19T03:10:17;18.40;;;16.60;;
4389;SDS011;2209;48.982;8.406;2022-08-19T03:12:40;19.77;;;16.13;;
4389;SDS011;2209;48.982;8.406;2022-08-19T03:15:03;18.47;;;16.47;;
4389;SDS011;2209;48.982;8.406;2022-08-19T03:17:26;18.33;;;16.47;;
4389;SDS011;2209;48.982;8.406;2022-08-19T03:19:50;17.80;;;16.10;;
4389;SDS011;2209;48.982;8.406;2022-08-19T03:22:12;20.60;;;17.20;;
4389;SDS011;2209;48.982;8.406;2022-08-19T03:24:34;21.80;;;16.20;;
4389;SDS011;2209;48.982;8.406;2022-08-19T03:26:56;19.87;;;17.77;;
4389;SDS011;2209;48.982;8.406;2022-08-19T03:29:19;18.10;;;16.30;;
4389;SDS011;2209;48.982;8.406;2022-08-19T03:31:42;20.50;;;17.20;;
4389;SDS011;2209;48.982;8.406;2022-08-19T03:34:05;18.83;;;16.80;;
4389;SDS011;2209;48.982;8.406;2022-08-19T03:36:28;21.20;;;18.17;;
4389;SDS011;2209;48.982;8.406;2022-08-19T03:38:51;20.90;;;18.40;;
4389;SDS011;2209;48.982;8.406;2022-08-19T03:41:16;19.13;;;17.17;;
4389;SDS011;2209;48.982;8.406;2022-08-19T03:43:42;20.73;;;18.43;;
4389;SDS011;2209;48.982;8.406;2022-08-19T03:46:07;19.57;;;17.57;;
4389;SDS011;2209;48.982;8.406;2022-08-19T03:48:31;26.83;;;16.90;;
4389;SDS011;2209;48.982;8.406;2022-08-19T03:50:54;20.07;;;17.90;;
4389;SDS011;2209;48.982;8.406;2022-08-19T03:53:18;17.43;;;15.70;;
4389;SDS011;2209;48.982;8.406;2022-08-19T03:55:40;17.53;;;15.70;;
4389;SDS011;2209;48.982;8.406;2022-08-19T03:58:02;18.23;;;16.33;;
4389;SDS011;2209;48.982;8.406;2022-08-19T04:00:24;18.30;;;16.50;;
4389;SDS011;2209;48.982;8.406;2022-08-19T04:02:46;20.53;;;18.33;;
4389;SDS011;2209;48.982;8.406;2022-08-19T04:05:09;19.73;;;17.73;;
4389;SDS011;2209;48.982;8.406;2022-08-19T04:07:31;21.40;;;18.30;;
4389;SDS011;2209;48.982;8.406;2022-08-19T04:09:54;23.30;;;16.97;;
4389;SDS011;2209;48.982;8.406;2022-08-19T04:12:16;20.33;;;18.13;;
4389;SDS011;2209;48.982;8.406;2022-08-19T04:14:40;23.87;;;19.70;;
4389;SDS011;2209;48.982;8.406;2022-08-19T04:17:03;22.50;;;18.77;;
4389;SDS011;2209;48.982;8.406;2022-08-19T04:19:26;21.57;;;18.23;;
4389;SDS011;2209;48.982;8.406;2022-08-19T04:21:49;18.03;;;16.17;;
4389;SDS011;2209;48.982;8.406;2022-08-19T04:24:13;20.47;;;18.10;;
4389;SDS011;2209;48.982;8.406;2022-08-19T04:26:36;20.10;;;18.00;;
4389;SDS011;2209;48.982;8.406;2022-08-19T04:28:59;19.87;;;17.40;;
4389;SDS011;2209;48.982;8.406;2022-08-19T04:31:23;17.20;;;15.50;;
4389;SDS011;2209;48.982;8.406;2022-08-19T04:33:47;21.37;;;18.93;;
4389;SDS011;2209;48.982;8.406;2022-08-19T04:36:15;20.33;;;18.30;;
4389;SDS011;2209;48.982;8.406;2022-08-19T04:38:40;22.30;;;18.90;;
4389;SDS011;2209;48.982;8.406;2022-08-19T04:41:03;20.23;;;17.97;;
4389;SDS011;2209;48.982;8.406;2022-08-19T04:43:44;24.67;;;19.23;;
4389;SDS011;2209;48.982;8.406;2022-08-19T04:46:09;20.80;;;18.53;;
4389;SDS011;2209;48.982;8.406;2022-08-19T04:48:33;19.33;;;17.33;;
4389;SDS011;2209;48.982;8.406;2022-08-19T04:50:56;21.50;;;18.10;;
4389;SDS011;2209;48.982;8.406;2022-08-19T04:53:19;20.97;;;18.57;;
4389;SDS011;2209;48.982;8.406;2022-08-19T04:55:42;19.30;;;17.27;;
4389;SDS011;2209;48.982;8.406;2022-08-19T04:58:04;20.53;;;18.43;;
4389;SDS011;2209;48.982;8.406;2022-08-19T05:00:28;23.03;;;20.57;;
4389;SDS011;2209;48.982;8.406;2022-08-19T05:02:50;21.77;;;19.43;;
4389;SDS011;2209;48.982;8.406;2022-08-19T05:05:12;25.00;;;20.50;;
4389;SDS011;2209;48.982;8.406;2022-08-19T05:07:34;24.60;;;19.73;;
4389;SDS011;2209;48.982;8.406;2022-08-19T05:09:57;25.63;;;21.93;;
4389;SDS011;2209;48.982;8.406;2022-08-19T05:12:19;25.40;;;21.33;;
4389;SDS011;2209;48.982;8.406;2022-08-19T05:14:41;25.03;;;20.80;;
4389;SDS011;2209;48.982;8.406;2022-08-19T05:17:04;26.70;;;22.97;;
4389;SDS011;2209;48.982;8.406;2022-08-19T05:19:27;24.57;;;21.67;;
4389;SDS011;2209;48.982;8.406;2022-08-19T05:22:15;25.27;;;20.70;;
4389;SDS011;2209;48.982;8.406;2022-08-19T05:24:55;28.73;;;21.13;;
4389;SDS011;2209;48.982;8.406;2022-08-19T05:27:18;22.80;;;18.30;;
4389;SDS011;2209;48.982;8.406;2022-08-19T05:29:40;25.83;;;20.50;;
4389;SDS011;2209;48.982;8.406;2022-08-19T05:32:03;24.70;;;21.80;;
4389;SDS011;2209;48.982;8.406;2022-08-19T05:34:29;30.70;;;20.30;;
4389;SDS011;2209;48.982;8.406;2022-08-19T05:36:52;21.33;;;17.97;;
4389;SDS011;2209;48.982;8.406;2022-08-19T05:39:18;21.40;;;18.90;;
4389;SDS011;2209;48.982;8.406;2022-08-19T05:41:41;21.03;;;18.83;;
4389;SDS011;2209;48.982;8.406;2022-08-19T05:44:04;21.00;;;18.70;;
4389;SDS011;2209;48.982;8.406;2022-08-19T05:46:29;19.23;;;16.97;;
4389;SDS011;2209;48.982;8.406;2022-08-19T05:48:53;21.60;;;18.27;;
4389;SDS011;2209;48.982;8.406;2022-08-19T05:51:16;21.30;;;17.93;;
4389;SDS011;2209;48.982;8.406;2022-08-19T05:53:38;25.50;;;17.97;;
4389;SDS011;2209;48.982;8.406;2022-08-19T05:56:03;22.67;;;19.53;;
4389;SDS011;2209;48.982;8.406;2022-08-19T05:58:25;24.27;;;19.10;;
4389;SDS011;2209;48.982;8.406;2022-08-19T06:00:48;24.60;;;18.97;;
4389;SDS011;2209;48.982;8.406;2022-08-19T06:03:10;23.17;;;19.10;;
4389;SDS011;2209;48.982;8.406;2022-08-19T06:05:33;19.53;;;17.43;;
4389;SDS011;2209;48.982;8.406;2022-08-19T06:07:55;20.37;;;18.23;;
4389;SDS011;2209;48.982;8.406;2022-08-19T06:10:18;23.40;;;19.40;;
4389;SDS011;2209;48.982;8.406;2022-08-19T06:12:41;20.40;;;18.30;;
4389;SDS011;2209;48.982;8.406;2022-08-19T06:15:05;21.40;;;17.80;;
4389;SDS011;2209;48.982;8.406;2022-08-19T06:17:29;24.23;;;17.70;;
4389;SDS011;2209;48.982;8.406;2022-08-19T06:19:51;21.97;;;19.40;;
4389;SDS011;2209;48.982;8.406;2022-08-19T06:22:15;19.83;;;17.80;;
4389;SDS011;2209;48.982;8.406;2022-08-19T06:24:37;20.57;;;16.40;;
4389;SDS011;2209;48.982;8.406;2022-08-19T06:26:59;21.97;;;18.30;;
4389;SDS011;2209;48.982;8.406;2022-08-19T06:29:26;19.73;;;17.50;;
4389;SDS011;2209;48.982;8.406;2022-08-19T06:31:50;20.03;;;17.77;;
4389;SDS011;2209;48.982;8.406;2022-08-19T06:34:15;23.27;;;18.67;;
4389;SDS011;2209;48.982;8.406;2022-08-19T06:36:38;22.17;;;18.63;;
4389;SDS011;2209;48.982;8.406;2022-08-19T06:39:05;21.80;;;17.17;;
4389;SDS011;2209;48.982;8.406;2022-08-19T06:41:28;18.33;;;16.53;;
4389;SDS011;2209;48.982;8.406;2022-08-19T06:43:51;20.77;;;17.73;;
4389;SDS011;2209;48.982;8.406;2022-08-19T06:46:14;21.53;;;19.20;;
4389;SDS011;2209;48.982;8.406;2022-08-19T06:48:38;20.97;;;17.67;;
4389;SDS011;2209;48.982;8.406;2022-08-19T06:51:01;20.93;;;17.27;;
4389;SDS011;2209;48.982;8.406;2022-08-19T06:53:25;19.90;;;17.73;;
4389;SDS011;2209;48.982;8.406;2022-08-19T06:55:49;21.17;;;18.97;;
4389;SDS011;2209;48.982;8.406;2022-08-19T06:58:20;21.50;;;16.77;;
4389;SDS011;2209;48.982;8.406;2022-08-19T07:00:42;19.73;;;17.63;;
4389;SDS011;2209;48.982;8.406;2022-08-19T07:03:05;19.93;;;17.93;;
4389;SDS011;2209;48.982;8.406;2022-08-19T07:05:27;18.57;;;16.63;;
4389;SDS011;2209;48.982;8.406;2022-08-19T07:07:49;19.37;;;17.37;;
4389;SDS011;2209;48.982;8.406;2022-08-19T07:10:11;20.80;;;18.40;;
4389;SDS011;2209;48.982;8.406;2022-08-19T07:12:36;19.07;;;17.20;;
4389;SDS011;2209;48.982;8.406;2022-08-19T07:15:01;19.30;;;16.13;;
4389;SDS011;2209;48.982;8.406;2022-08-19T07:17:23;19.90;;;16.33;;
4389;SDS011;2209;48.982;8.406;2022-08-19T07:19:46;19.07;;;17.17;;
4389;SDS011;2209;48.982;8.406;2022-08-19T07:22:10;18.70;;;16.00;;
4389;SDS011;2209;48.982;8.406;2022-08-19T07:24:32;17.33;;;15.63;;
4389;SDS011;2209;48.982;8.406;2022-08-19T07:26:56;19.63;;;17.40;;
4389;SDS011;2209;48.982;8.406;2022-08-19T07:29:24;17.63;;;15.83;;
4389;SDS011;2209;48.982;8.406;2022-08-19T07:31:46;18.20;;;16.30;;
4389;SDS011;2209;48.982;8.406;2022-08-19T07:34:10;17.27;;;15.60;;
4389;SDS011;2209;48.982;8.406;2022-08-19T07:36:34;18.40;;;15.17;;
4389;SDS011;2209;48.982;8.406;2022-08-19T07:38:59;18.90;;;16.27;;
4389;SDS011;2209;48.982;8.406;2022-08-19T07:41:23;17.00;;;15.30;;
4389;SDS011;2209;48.982;8.406;2022-08-19T07:43:48;17.63;;;15.57;;
4389;SDS011;2209;48.982;8.406;2022-08-19T07:46:13;16.13;;;14.50;;
4389;SDS011;2209;48.982;8.406;2022-08-19T07:48:36;18.10;;;16.10;;
4389;SDS011;2209;48.982;8.406;2022-08-19T07:50:59;16.20;;;14.00;;
4389;SDS011;2209;48.982;8.406;2022-08-19T07:53:23;16.53;;;14.40;;
4389;SDS011;2209;48.982;8.406;2022-08-19T07:55:46;18.53;;;16.57;;
4389;SDS011;2209;48.982;8.406;2022-08-19T07:58:08;16.17;;;14.60;;
4389;SDS011;2209;48.982;8.406;2022-08-19T08:00:30;16.80;;;13.60;;
4389;SDS011;2209;48.982;8.406;2022-08-19T08:02:54;17.97;;;14.37;;
4389;SDS011;2209;48.982;8.406;2022-08-19T08:05:16;16.10;;;14.47;;
4389;SDS011;2209;48.982;8.406;2022-08-19T08:07:55;16.97;;;15.30;;
4389;SDS011;2209;48.982;8.406;2022-08-19T08:10:35;22.53;;;14.63;;
4389;SDS011;2209;48.982;8.406;2022-08-19T08:12:57;16.20;;;14.70;;
4389;SDS011;2209;48.982;8.406;2022-08-19T08:15:21;18.37;;;13.80;;
4389;SDS011;2209;48.982;8.406;2022-08-19T08:17:44;14.60;;;13.17;;
4389;SDS011;2209;48.982;8.406;2022-08-19T08:20:08;18.23;;;15.27;;
4389;SDS011;2209;48.982;8.406;2022-08-19T08:22:31;15.13;;;13.63;;
4389;SDS011;2209;48.982;8.406;2022-08-19T08:25:13;18.70;;;13.67;;
4389;SDS011;2209;48.982;8.406;2022-08-19T08:27:38;15.77;;;13.87;;
4389;SDS011;2209;48.982;8.406;2022-08-19T08:30:01;16.90;;;14.40;;
4389;SDS011;2209;48.982;8.406;2022-08-19T08:32:24;14.60;;;13.20;;
4389;SDS011;2209;48.982;8.406;2022-08-19T08:34:47;17.20;;;12.60;;
4389;SDS011;2209;48.982;8.406;2022-08-19T08:37:10;13.53;;;12.27;;
4389;SDS011;2209;48.982;8.406;2022-08-19T08:39:32;17.83;;;13.80;;
4389;SDS011;2209;48.982;8.406;2022-08-19T08:41:57;15.13;;;13.63;;
4389;SDS011;2209;48.982;8.406;2022-08-19T08:44:28;16.97;;;12.87;;
4389;SDS011;2209;48.982;8.406;2022-08-19T08:47:02;17.50;;;12.23;;
4389;SDS011;2209;48.982;8.406;2022-08-19T08:49:29;17.50;;;11.37;;
4389;SDS011;2209;48.982;8.406;2022-08-19T08:51:58;14.83;;;13.33;;
4389;SDS011;2209;48.982;8.406;2022-08-19T08:54:27;13.87;;;11.70;;
4389;SDS011;2209;48.982;8.406;2022-08-19T08:56:53;13.60;;;10.80;;
4389;SDS011;2209;48.982;8.406;2022-08-19T08:59:16;12.90;;;11.23;;
4389;SDS011;2209;48.982;8.406;2022-08-19T09:01:42;15.23;;;12.20;;
4389;SDS011;2209;48.982;8.406;2022-08-19T09:04:04;14.33;;;11.67;;
4389;SDS011;2209;48.982;8.406;2022-08-19T09:06:29;11.80;;;10.60;;
4389;SDS011;2209;48.982;8.406;2022-08-19T09:08:59;12.57;;;11.27;;
4389;SDS011;2209;48.982;8.406;2022-08-19T09:11:29;16.90;;;10.83;;
4389;SDS011;2209;48.982;8.406;2022-08-19T09:14:07;11.07;;;9.77;;
4389;SDS011;2209;48.982;8.406;2022-08-19T09:16:35;11.07;;;9.90;;
4389;SDS011;2209;48.982;8.406;2022-08-19T09:19:01;12.67;;;10.70;;
4389;SDS011;2209;48.982;8.406;2022-08-19T09:21:25;9.90;;;8.90;;
4389;SDS011;2209;48.982;8.406;2022-08-19T09:23:47;9.77;;;8.77;;
4389;SDS011;2209;48.982;8.406;2022-08-19T09:26:11;12.33;;;10.30;;
4389;SDS011;2209;48.982;8.406;2022-08-19T09:28:37;12.90;;;10.43;;
4389;SDS011;2209;48.982;8.406;2022-08-19T09:31:02;10.60;;;9.50;;
4389;SDS011;2209;48.982;8.406;2022-08-19T09:33:24;9.97;;;8.87;;
4389;SDS011;2209;48.982;8.406;2022-08-19T09:35:47;12.03;;;8.73;;
4389;SDS011;2209;48.982;8.406;2022-08-19T09:38:09;12.33;;;8.87;;
4389;SDS011;2209;48.982;8.406;2022-08-19T09:40:31;8.43;;;7.63;;
4389;SDS011;2209;48.982;8.406;2022-08-19T09:42:53;13.23;;;8.53;;
4389;SDS011;2209;48.982;8.406;2022-08-19T09:45:19;10.83;;;9.37;;
4389;SDS011;2209;48.982;8.406;2022-08-19T09:47:43;10.77;;;9.80;;
4389;SDS011;2209;48.982;8.406;2022-08-19T09:50:05;10.83;;;9.73;;
4389;SDS011;2209;48.982;8.406;2022-08-19T09:52:29;9.57;;;8.40;;
4389;SDS011;2209;48.982;8.406;2022-08-19T09:54:51;10.33;;;9.00;;
4389;SDS011;2209;48.982;8.406;2022-08-19T09:57:14;8.10;;;7.23;;
4389;SDS011;2209;48.982;8.406;2022-08-19T09:59:38;10.37;;;9.30;;
4389;SDS011;2209;48.982;8.406;2022-08-19T10:02:02;10.00;;;9.00;;
4389;SDS011;2209;48.982;8.406;2022-08-19T10:04:24;9.50;;;8.60;;
4389;SDS011;2209;48.982;8.406;2022-08-19T10:07:07;9.13;;;8.33;;
4389;SDS011;2209;48.982;8.406;2022-08-19T10:09:29;9.23;;;8.33;;
4389;SDS011;2209;48.982;8.406;2022-08-19T10:11:51;10.33;;;9.20;;
4389;SDS011;2209;48.982;8.406;2022-08-19T10:14:13;12.43;;;8.73;;
4389;SDS011;2209;48.982;8.406;2022-08-19T10:16:37;8.60;;;7.80;;
4389;SDS011;2209;48.982;8.406;2022-08-19T10:19:01;8.80;;;8.00;;
4389;SDS011;2209;48.982;8.406;2022-08-19T10:21:25;10.33;;;9.27;;
4389;SDS011;2209;48.982;8.406;2022-08-19T10:23:49;9.63;;;8.63;;
4389;SDS011;2209;48.982;8.406;2022-08-19T10:26:14;11.20;;;10.17;;
4389;SDS011;2209;48.982;8.406;2022-08-19T10:28:40;10.53;;;9.53;;
4389;SDS011;2209;48.982;8.406;2022-08-19T10:31:05;10.03;;;9.13;;
4389;SDS011;2209;48.982;8.406;2022-08-19T10:33:29;10.57;;;8.80;;
4389;SDS011;2209;48.982;8.406;2022-08-19T10:35:59;8.27;;;7.50;;
4389;SDS011;2209;48.982;8.406;2022-08-19T10:38:21;9.07;;;8.17;;
4389;SDS011;2209;48.982;8.406;2022-08-19T10:40:44;9.67;;;8.90;;
4389;SDS011;2209;48.982;8.406;2022-08-19T10:43:06;10.03;;;9.17;;
4389;SDS011;2209;48.982;8.406;2022-08-19T10:45:28;9.13;;;7.53;;
4389;SDS011;2209;48.982;8.406;2022-08-19T10:47:50;8.97;;;8.07;;
4389;SDS011;2209;48.982;8.406;2022-08-19T10:50:14;11.33;;;10.00;;
4389;SDS011;2209;48.982;8.406;2022-08-19T10:52:55;8.13;;;7.53;;
4389;SDS011;2209;48.982;8.406;2022-08-19T10:55:18;10.60;;;8.87;;
4389;SDS011;2209;48.982;8.406;2022-08-19T10:57:59;13.27;;;12.03;;
4389;SDS011;2209;48.982;8.406;2022-08-19T11:00:22;10.43;;;8.40;;
4389;SDS011;2209;48.982;8.406;2022-08-19T11:02:46;10.33;;;9.33;;
4389;SDS011;2209;48.982;8.406;2022-08-19T11:05:11;13.70;;;9.67;;
4389;SDS011;2209;48.982;8.406;2022-08-19T11:07:40;13.13;;;9.80;;
4389;SDS011;2209;48.982;8.406;2022-08-19T11:10:06;11.00;;;9.90;;
4389;SDS011;2209;48.982;8.406;2022-08-19T11:12:31;9.10;;;8.30;;
4389;SDS011;2209;48.982;8.406;2022-08-19T11:14:53;9.07;;;8.27;;
4389;SDS011;2209;48.982;8.406;2022-08-19T11:17:15;10.07;;;9.27;;
4389;SDS011;2209;48.982;8.406;2022-08-19T11:19:37;11.00;;;9.90;;
4389;SDS011;2209;48.982;8.406;2022-08-19T11:21:59;10.70;;;9.80;;
4389;SDS011;2209;48.982;8.406;2022-08-19T11:24:23;11.03;;;10.03;;
4389;SDS011;2209;48.982;8.406;2022-08-19T11:26:49;11.80;;;10.80;;
4389;SDS011;2209;48.982;8.406;2022-08-19T11:29:13;12.27;;;11.03;;
4389;SDS011;2209;48.982;8.406;2022-08-19T11:31:35;9.73;;;9.03;;
4389;SDS011;2209;48.982;8.406;2022-08-19T11:33:59;9.93;;;9.13;;
4389;SDS011;2209;48.982;8.406;2022-08-19T11:36:24;9.43;;;8.53;;
4389;SDS011;2209;48.982;8.406;2022-08-19T11:38:46;10.20;;;9.20;;
4389;SDS011;2209;48.982;8.406;2022-08-19T11:41:09;9.77;;;8.67;;
4389;SDS011;2209;48.982;8.406;2022-08-19T11:43:33;9.87;;;8.10;;
4389;SDS011;2209;48.982;8.406;2022-08-19T11:45:55;9.70;;;9.00;;
4389;SDS011;2209;48.982;8.406;2022-08-19T11:48:18;9.37;;;8.60;;
4389;SDS011;2209;48.982;8.406;2022-08-19T11:50:42;10.17;;;8.97;;
4389;SDS011;2209;48.982;8.406;2022-08-19T11:53:04;10.00;;;9.17;;
4389;SDS011;2209;48.982;8.406;2022-08-19T11:55:26;9.90;;;9.00;;
4389;SDS011;2209;48.982;8.406;2022-08-19T11:57:48;10.33;;;9.50;;
4389;SDS011;2209;48.982;8.406;2022-08-19T12:00:13;10.47;;;9.37;;
4389;SDS011;2209;48.982;8.406;2022-08-19T12:02:35;9.17;;;8.47;;
4389;SDS011;2209;48.982;8.406;2022-08-19T12:04:57;8.40;;;7.60;;
4389;SDS011;2209;48.982;8.406;2022-08-19T12:07:23;10.60;;;9.60;;
4389;SDS011;2209;48.982;8.406;2022-08-19T12:09:45;10.37;;;9.50;;
4389;SDS011;2209;48.982;8.406;2022-08-19T12:12:08;10.30;;;9.40;;
4389;SDS011;2209;48.982;8.406;2022-08-19T12:14:30;9.47;;;8.30;;
4389;SDS011;2209;48.982;8.406;2022-08-19T12:16:54;10.43;;;9.63;;
4389;SDS011;2209;48.982;8.406;2022-08-19T12:19:16;9.90;;;9.10;;
4389;SDS011;2209;48.982;8.406;2022-08-19T12:21:38;9.77;;;8.87;;
4389;SDS011;2209;48.982;8.406;2022-08-19T12:24:01;9.40;;;8.50;;
4389;SDS011;2209;48.982;8.406;2022-08-19T12:26:25;9.63;;;8.80;;
4389;SDS011;2209;48.982;8.406;2022-08-19T12:28:48;10.00;;;9.30;;
4389;SDS011;2209;48.982;8.406;2022-08-19T12:31:10;10.23;;;9.20;;
4389;SDS011;2209;48.982;8.406;2022-08-19T12:33:34;10.50;;;9.13;;
4389;SDS011;2209;48.982;8.406;2022-08-19T12:35:59;9.70;;;8.80;;
4389;SDS011;2209;48.982;8.406;2022-08-19T12:38:24;10.43;;;9.63;;
4389;SDS011;2209;48.982;8.406;2022-08-19T12:40:46;10.50;;;9.70;;
4389;SDS011;2209;48.982;8.406;2022-08-19T12:43:09;10.07;;;9.10;;
4389;SDS011;2209;48.982;8.406;2022-08-19T12:45:32;9.80;;;9.10;;
4389;SDS011;2209;48.982;8.406;2022-08-19T12:47:55;13.87;;;8.70;;
4389;SDS011;2209;48.982;8.406;2022-08-19T12:50:18;9.37;;;8.67;;
4389;SDS011;2209;48.982;8.406;2022-08-19T12:52:41;8.73;;;8.03;;
4389;SDS011;2209;48.982;8.406;2022-08-19T12:55:04;9.83;;;8.80;;
4389;SDS011;2209;48.982;8.406;2022-08-19T12:57:28;8.40;;;7.60;;
4389;SDS011;2209;48.982;8.406;2022-08-19T12:59:53;15.13;;;8.93;;
4389;SDS011;2209;48.982;8.406;2022-08-19T13:02:15;8.60;;;7.90;;
4389;SDS011;2209;48.982;8.406;2022-08-19T13:04:37;9.10;;;8.40;;
4389;SDS011;2209;48.982;8.406;2022-08-19T13:07:02;8.83;;;8.00;;
4389;SDS011;2209;48.982;8.406;2022-08-19T13:09:24;8.60;;;7.90;;
4389;SDS011;2209;48.982;8.406;2022-08-19T13:11:46;8.53;;;7.83;;
4389;SDS011;2209;48.982;8.406;2022-08-19T13:14:09;8.60;;;7.80;;
4389;SDS011;2209;48.982;8.406;2022-08-19T13:16:31;8.37;;;7.70;;
4389;SDS011;2209;48.982;8.406;2022-08-19T13:18:55;9.83;;;9.03;;
4389;SDS011;2209;48.982;8.406;2022-08-19T13:21:18;8.33;;;7.63;;
4389;SDS011;2209;48.982;8.406;2022-08-19T13:23:42;7.90;;;7.10;;
4389;SDS011;2209;48.982;8.406;2022-08-19T13:26:06;8.53;;;7.63;;
4389;SDS011;2209;48.982;8.406;2022-08-19T13:28:29;7.03;;;6.53;;
4389;SDS011;2209;48.982;8.406;2022-08-19T13:31:14;7.97;;;7.30;;
4389;SDS011;2209;48.982;8.406;2022-08-19T13:33:54;6.87;;;6.37;;
4389;SDS011;2209;48.982;8.406;2022-08-19T13:36:16;7.07;;;6.50;;
4389;SDS011;2209;48.982;8.406;2022-08-19T13:38:38;6.50;;;5.90;;
4389;SDS011;2209;48.982;8.406;2022-08-19T13:41:05;6.30;;;5.80;;
4389;SDS011;2209;48.982;8.406;2022-08-19T13:43:28;5.90;;;5.50;;
4389;SDS011;2209;48.982;8.406;2022-08-19T13:45:50;5.90;;;5.50;;
4389;SDS011;2209;48.982;8.406;2022-08-19T13:48:14;5.37;;;4.97;;
4389;SDS011;2209;48.982;8.406;2022-08-19T13:50:38;5.13;;;4.80;;
4389;SDS011;2209;48.982;8.406;2022-08-19T13:53:03;5.10;;;4.60;;
4389;SDS011;2209;48.982;8.406;2022-08-19T13:55:26;4.40;;;4.13;;
4389;SDS011;2209;48.982;8.406;2022-08-19T13:57:51;7.07;;;4.50;;
4389;SDS011;2209;48.982;8.406;2022-08-19T14:00:14;4.60;;;4.30;;
4389;SDS011;2209;48.982;8.406;2022-08-19T14:02:38;5.20;;;4.80;;
4389;SDS011;2209;48.982;8.406;2022-08-19T14:05:01;4.63;;;4.17;;
4389;SDS011;2209;48.982;8.406;2022-08-19T14:07:23;4.40;;;4.10;;
4389;SDS011;2209;48.982;8.406;2022-08-19T14:09:46;4.90;;;4.50;;
4389;SDS011;2209;48.982;8.406;2022-08-19T14:12:08;4.67;;;4.37;;
4389;SDS011;2209;48.982;8.406;2022-08-19T14:14:31;5.30;;;4.90;;
4389;SDS011;2209;48.982;8.406;2022-08-19T14:16:57;4.90;;;4.60;;
4389;SDS011;2209;48.982;8.406;2022-08-19T14:19:19;5.57;;;5.10;;
4389;SDS011;2209;48.982;8.406;2022-08-19T14:21:41;5.13;;;4.60;;
4389;SDS011;2209;48.982;8.406;2022-08-19T14:24:04;7.60;;;5.50;;
4389;SDS011;2209;48.982;8.406;2022-08-19T14:26:26;5.90;;;5.40;;
4389;SDS011;2209;48.982;8.406;2022-08-19T14:28:48;5.77;;;5.13;;
4389;SDS011;2209;48.982;8.406;2022-08-19T14:31:12;6.30;;;5.80;;
4389;SDS011;2209;48.982;8.406;2022-08-19T14:33:39;5.87;;;5.37;;
4389;SDS011;2209;48.982;8.406;2022-08-19T14:36:02;8.20;;;6.33;;